createdAt,value
2022-08-07T00:02:41.159Z,100635.69
2022-08-07T00:05:03.910Z,100633.34
2022-08-07T00:07:40.627Z,100621.69
2022-08-07T00:10:26.868Z,100616.00
2022-08-07T00:13:00.153Z,100620.50
2022-08-07T00:15:37.644Z,100626.06
2022-08-07T00:18:18.909Z,100619.41
2022-08-07T00:20:49.728Z,100618.75
2022-08-07T00:23:17.847Z,100619.88
2022-08-07T00:25:52.065Z,100624.47
2022-08-07T00:28:33.821Z,100625.59
2022-08-07T00:31:06.121Z,100611.50
2022-08-07T00:33:41.140Z,100616.34
2022-08-07T00:36:11.284Z,100624.88
2022-08-07T00:38:39.719Z,100625.72
2022-08-07T00:41:09.986Z,100626.78
2022-08-07T00:44:00.446Z,100627.78
2022-08-07T00:46:32.950Z,100626.31
2022-08-07T00:49:02.346Z,100634.69
2022-08-07T00:51:57.616Z,100641.16
2022-08-07T00:54:20.123Z,100639.31
2022-08-07T00:56:49.921Z,100643.56
2022-08-07T00:59:17.936Z,100637.97
2022-08-07T01:01:48.414Z,100630.34
2022-08-07T01:04:24.546Z,100629.72
2022-08-07T01:06:54.290Z,100628.13
2022-08-07T01:10:04.991Z,100617.66
2022-08-07T01:12:29.846Z,100621.19
2022-08-07T01:15:01.562Z,100620.13
2022-08-07T01:17:33.051Z,100625.78
2022-08-07T01:20:05.641Z,100626.06
2022-08-07T01:22:36.657Z,100630.66
2022-08-07T01:25:54.695Z,100625.56
2022-08-07T01:27:53.599Z,100626.63
2022-08-07T01:30:27.252Z,100626.38
2022-08-07T01:32:55.508Z,100621.59
2022-08-07T01:35:26.598Z,100622.34
2022-08-07T01:38:25.178Z,100614.47
2022-08-07T01:40:56.961Z,100617.75
2022-08-07T01:43:27.521Z,100615.38
2022-08-07T01:46:08.075Z,100617.53
2022-08-07T01:48:40.990Z,100614.63
2022-08-07T01:52:00.923Z,100622.09
2022-08-07T01:54:12.577Z,100615.91
2022-08-07T01:56:53.210Z,100608.38
2022-08-07T01:59:31.179Z,100617.75
2022-08-07T02:02:04.427Z,100615.69
2022-08-07T02:04:56.322Z,100619.56
2022-08-07T02:07:36.135Z,100620.63
2022-08-07T02:10:26.093Z,100613.09
2022-08-07T02:12:59.520Z,100625.94
2022-08-07T02:15:30.174Z,100630.09
2022-08-07T02:18:03.791Z,100624.22
2022-08-07T02:20:33.515Z,100632.38
2022-08-07T02:23:06.163Z,100631.41
2022-08-07T02:26:26.594Z,100628.97
2022-08-07T02:28:28.609Z,100631.47
2022-08-07T02:30:57.750Z,100631.00
2022-08-07T02:33:42.009Z,100633.56
2022-08-07T02:36:29.365Z,100640.75
2022-08-07T02:39:02.757Z,100642.44
2022-08-07T02:41:47.331Z,100639.88
2022-08-07T02:44:26.875Z,100641.19
2022-08-07T02:47:03.773Z,100643.13
2022-08-07T02:49:56.431Z,100636.78
2022-08-07T02:52:31.228Z,100649.84
2022-08-07T02:55:04.838Z,100645.19
2022-08-07T02:57:57.149Z,100654.66
2022-08-07T03:00:28.098Z,100650.41
2022-08-07T03:03:00.052Z,100641.06
2022-08-07T03:05:35.905Z,100651.66
2022-08-07T03:08:09.460Z,100657.84
2022-08-07T03:10:41.071Z,100659.78
2022-08-07T03:13:19.634Z,100661.00
2022-08-07T03:15:56.490Z,100657.16
2022-08-07T03:18:34.808Z,100662.13
2022-08-07T03:21:08.726Z,100662.75
2022-08-07T03:24:17.944Z,100663.28
2022-08-07T03:26:29.989Z,100667.75
2022-08-07T03:29:00.766Z,100662.84
2022-08-07T03:31:42.867Z,100662.59
2022-08-07T03:34:18.506Z,100660.28
2022-08-07T03:36:52.889Z,100664.53
2022-08-07T03:39:58.882Z,100662.16
2022-08-07T03:42:11.350Z,100660.25
2022-08-07T03:44:42.499Z,100660.88
2022-08-07T03:47:15.581Z,100654.94
2022-08-07T03:49:47.963Z,100667.81
2022-08-07T03:52:26.105Z,100667.94
2022-08-07T03:54:59.016Z,100658.16
2022-08-07T03:58:33.428Z,100661.91
2022-08-07T04:00:30.475Z,100659.34
2022-08-07T04:03:04.012Z,100661.31
2022-08-07T04:05:40.443Z,100662.41
2022-08-07T04:08:11.498Z,100661.19
2022-08-07T04:10:42.205Z,100661.94
2022-08-07T04:13:15.067Z,100664.47
2022-08-07T04:15:45.687Z,100664.91
2022-08-07T04:18:58.353Z,100667.31
2022-08-07T04:21:07.278Z,100662.91
2022-08-07T04:23:43.706Z,100661.69
2022-08-07T04:26:23.850Z,100667.00
2022-08-07T04:28:56.235Z,100665.16
2022-08-07T04:31:38.852Z,100666.78
2022-08-07T04:34:23.975Z,100671.25
2022-08-07T04:36:55.920Z,100659.47
2022-08-07T04:39:25.963Z,100675.63
2022-08-07T04:41:54.053Z,100671.78
2022-08-07T04:44:22.019Z,100669.72
2022-08-07T04:47:04.221Z,100666.19
2022-08-07T04:49:57.392Z,100671.91
2022-08-07T04:52:36.873Z,100679.00
2022-08-07T04:58:13.159Z,100675.66
2022-08-07T04:58:38.826Z,100681.94
2022-08-07T05:01:18.322Z,100694.13
2022-08-07T05:04:06.743Z,100688.78
2022-08-07T05:06:43.848Z,100688.69
2022-08-07T05:09:43.034Z,100688.72
2022-08-07T05:12:26.891Z,100696.81
2022-08-07T05:15:04.487Z,100687.91
2022-08-07T05:17:50.970Z,100695.13
2022-08-07T05:20:30.967Z,100699.94
2022-08-07T05:23:04.354Z,100697.13
2022-08-07T05:26:10.490Z,100698.81
2022-08-07T05:28:26.806Z,100689.34
2022-08-07T05:30:57.288Z,100695.69
2022-08-07T05:33:27.804Z,100689.72
2022-08-07T05:35:58.323Z,100698.50
2022-08-07T05:38:59.451Z,100701.00
2022-08-07T05:41:18.446Z,100690.38
2022-08-07T05:44:08.613Z,100698.97
2022-08-07T05:46:41.277Z,100699.06
2022-08-07T05:49:12.642Z,100700.59
2022-08-07T05:51:46.635Z,100707.13
2022-08-07T05:54:30.167Z,100703.50
2022-08-07T05:57:01.230Z,100699.63
2022-08-07T05:59:39.075Z,100708.19
2022-08-07T06:02:28.672Z,100706.97
2022-08-07T06:05:03.680Z,100712.44
2022-08-07T06:08:13.406Z,100718.81
2022-08-07T06:10:24.174Z,100712.50
2022-08-07T06:12:52.549Z,100723.72
2022-08-07T06:15:20.887Z,100714.88
2022-08-07T06:17:53.449Z,100717.88
2022-08-07T06:20:25.635Z,100708.84
2022-08-07T06:23:46.320Z,100705.56
2022-08-07T06:25:57.858Z,100704.84
2022-08-07T06:28:27.878Z,100707.41
2022-08-07T06:30:58.235Z,100708.53
2022-08-07T06:33:26.613Z,100707.91
2022-08-07T06:36:13.025Z,100716.06
2022-08-07T06:38:51.377Z,100703.28
2022-08-07T06:42:02.156Z,100707.03
2022-08-07T06:44:22.686Z,100698.59
2022-08-07T06:46:53.522Z,100702.06
2022-08-07T06:49:52.356Z,100700.72
2022-08-07T06:52:31.325Z,100701.06
2022-08-07T06:55:32.932Z,100701.75
2022-08-07T06:58:00.031Z,100698.03
2022-08-07T07:00:31.173Z,100696.16
2022-08-07T07:03:01.190Z,100697.66
2022-08-07T07:06:03.765Z,100703.72
2022-08-07T07:08:28.288Z,100698.97
2022-08-07T07:11:01.403Z,100703.00
2022-08-07T07:13:58.264Z,100692.09
2022-08-07T07:16:45.195Z,100694.41
2022-08-07T07:19:55.311Z,100705.19
2022-08-07T07:22:34.198Z,100699.41
2022-08-07T07:25:14.054Z,100703.66
2022-08-07T07:27:58.557Z,100698.88
2022-08-07T07:30:38.543Z,100698.88
2022-08-07T07:33:11.709Z,100709.97
2022-08-07T07:35:50.639Z,100707.03
2022-08-07T07:38:32.511Z,100706.59
2022-08-07T07:41:05.087Z,100706.44
2022-08-07T07:44:13.600Z,100699.63
2022-08-07T07:46:40.606Z,100702.59
2022-08-07T07:50:36.177Z,100706.00
2022-08-07T07:52:12.738Z,100708.06
2022-08-07T07:54:44.314Z,100709.13
2022-08-07T07:57:29.110Z,100710.34
2022-08-07T08:00:21.100Z,100711.91
2022-08-07T08:03:06.198Z,100713.03
2022-08-07T08:05:43.203Z,100707.69
2022-08-07T08:08:34.603Z,100711.41
2022-08-07T08:11:16.082Z,100711.84
2022-08-07T08:13:53.262Z,100711.56
2022-08-07T08:16:30.926Z,100714.41
2022-08-07T08:19:17.416Z,100715.88
2022-08-07T08:21:55.731Z,100705.63
2022-08-07T08:24:45.830Z,100710.13
2022-08-07T08:27:18.083Z,100707.16
2022-08-07T08:29:54.469Z,100711.03
2022-08-07T08:32:39.325Z,100703.78
2022-08-07T08:35:10.662Z,100702.34
2022-08-07T08:38:01.604Z,100701.34
2022-08-07T08:40:32.186Z,100707.25
2022-08-07T08:43:09.228Z,100707.06
2022-08-07T08:45:59.013Z,100700.41
2022-08-07T08:48:38.449Z,100697.25
2022-08-07T08:51:26.095Z,100698.97
2022-08-07T08:54:10.559Z,100703.81
2022-08-07T08:56:47.184Z,100695.03
2022-08-07T08:59:20.436Z,100695.97
2022-08-07T09:02:00.505Z,100701.00
2022-08-07T09:04:41.562Z,100700.25
2022-08-07T09:07:24.448Z,100687.28
2022-08-07T09:10:02.570Z,100695.06
2022-08-07T09:12:43.082Z,100683.53
2022-08-07T09:16:22.697Z,100693.41
2022-08-07T09:18:53.225Z,100688.66
2022-08-07T09:22:22.409Z,100689.50
2022-08-07T09:24:59.164Z,100684.72
2022-08-07T09:27:38.318Z,100690.56
2022-08-07T09:30:27.928Z,100683.22
2022-08-07T09:33:16.772Z,100688.47
2022-08-07T09:36:04.777Z,100687.25
2022-08-07T09:38:50.104Z,100682.19
2022-08-07T09:41:43.242Z,100685.34
2022-08-07T09:44:32.966Z,100673.56
2022-08-07T09:48:01.523Z,100686.22
2022-08-07T09:50:26.512Z,100685.19
2022-08-07T09:53:01.368Z,100690.44
2022-08-07T09:56:03.786Z,100689.19
2022-08-07T09:58:59.689Z,100685.38
2022-08-07T10:01:51.222Z,100690.19
2022-08-07T10:04:38.138Z,100691.06
2022-08-07T10:07:24.370Z,100686.88
2022-08-07T10:10:21.601Z,100678.88
2022-08-07T10:13:29.635Z,100691.47
2022-08-07T10:16:16.287Z,100676.34
2022-08-07T10:19:11.220Z,100675.72
2022-08-07T10:22:16.282Z,100682.41
2022-08-07T10:24:51.166Z,100676.13
2022-08-07T10:27:46.395Z,100675.69
2022-08-07T10:30:19.448Z,100673.56
2022-08-07T10:33:08.282Z,100670.44
2022-08-07T10:36:05.622Z,100672.09
2022-08-07T10:38:51.209Z,100675.06
2022-08-07T10:41:53.130Z,100659.94
2022-08-07T10:44:38.058Z,100671.28
2022-08-07T10:47:27.061Z,100665.38
2022-08-07T10:50:17.025Z,100674.84
2022-08-07T10:52:55.673Z,100678.63
2022-08-07T10:55:37.672Z,100674.22
2022-08-07T10:58:18.073Z,100670.22
2022-08-07T11:01:15.109Z,100662.47
2022-08-07T11:04:05.387Z,100667.50
2022-08-07T11:06:48.084Z,100659.50
2022-08-07T11:10:07.747Z,100675.91
2022-08-07T11:12:19.030Z,100670.88
2022-08-07T11:15:09.691Z,100666.00
2022-08-07T11:17:49.897Z,100664.97
2022-08-07T11:20:31.253Z,100660.13
2022-08-07T11:23:07.470Z,100659.88
2022-08-07T11:25:47.953Z,100664.06
2022-08-07T11:28:21.212Z,100668.94
2022-08-07T11:30:59.776Z,100672.56
2022-08-07T11:33:54.315Z,100660.59
2022-08-07T11:36:38.316Z,100663.72
2022-08-07T11:39:19.678Z,100657.00
2022-08-07T11:42:02.092Z,100662.66
2022-08-07T11:44:52.720Z,100658.66
2022-08-07T11:47:38.863Z,100658.84
2022-08-07T11:50:36.379Z,100652.75
2022-08-07T11:53:28.652Z,100640.53
2022-08-07T11:56:27.044Z,100648.94
2022-08-07T12:00:08.330Z,100640.50
2022-08-07T12:02:17.693Z,100639.25
2022-08-07T12:05:15.032Z,100632.50
2022-08-07T12:08:03.698Z,100637.56
2022-08-07T12:10:41.882Z,100640.16
2022-08-07T12:13:17.207Z,100641.19
2022-08-07T12:16:06.355Z,100642.25
2022-08-07T12:18:45.225Z,100639.53
2022-08-07T12:22:36.240Z,100638.50
2022-08-07T12:24:38.103Z,100628.84
2022-08-07T12:27:16.681Z,100618.97
2022-08-07T12:29:53.841Z,100621.06
2022-08-07T12:32:31.122Z,100621.28
2022-08-07T12:35:02.400Z,100609.59
2022-08-07T12:38:09.333Z,100623.81
2022-08-07T12:44:02.728Z,100618.34
2022-08-07T12:46:32.161Z,100622.34
2022-08-07T12:49:09.907Z,100623.19
2022-08-07T12:51:51.372Z,100627.78
2022-08-07T12:54:41.177Z,100637.28
2022-08-07T12:57:10.922Z,100629.09
2022-08-07T12:59:54.299Z,100613.78
2022-08-07T13:02:42.284Z,100623.66
2022-08-07T13:06:03.858Z,100633.91
2022-08-07T13:08:27.770Z,100626.13
2022-08-07T13:11:08.778Z,100627.81
2022-08-07T13:13:57.423Z,100631.78
2022-08-07T13:16:36.587Z,100623.66
2022-08-07T13:19:21.989Z,100628.06
2022-08-07T13:22:19.779Z,100632.25
2022-08-07T13:25:00.550Z,100635.63
2022-08-07T13:28:10.828Z,100629.13
2022-08-07T13:30:41.171Z,100631.41
2022-08-07T13:34:32.662Z,100630.59
2022-08-07T13:36:17.738Z,100619.47
2022-08-07T13:38:55.999Z,100629.53
2022-08-07T13:41:35.202Z,100621.31
2022-08-07T13:44:05.240Z,100625.13
2022-08-07T13:46:49.366Z,100624.31
2022-08-07T13:50:34.443Z,100623.69
2022-08-07T13:52:26.476Z,100629.94
2022-08-07T13:54:59.165Z,100623.66
2022-08-07T13:57:32.215Z,100629.72
2022-08-07T14:00:07.460Z,100629.31
2022-08-07T14:02:49.349Z,100627.00
2022-08-07T14:05:23.528Z,100625.31
2022-08-07T14:08:00.417Z,100623.22
2022-08-07T14:10:42.251Z,100627.44
2022-08-07T14:13:16.668Z,100627.00
2022-08-07T14:15:53.460Z,100636.84
2022-08-07T14:18:30.620Z,100629.09
2022-08-07T14:21:08.074Z,100632.41
2022-08-07T14:24:00.162Z,100628.88
2022-08-07T14:26:40.620Z,100615.88
2022-08-07T14:30:08.023Z,100627.84
2022-08-07T14:32:13.099Z,100624.88
2022-08-07T14:34:46.030Z,100620.84
2022-08-07T14:37:18.457Z,100622.72
2022-08-07T14:40:15.804Z,100612.03
2022-08-07T14:43:00.659Z,100614.94
2022-08-07T14:48:20.383Z,100618.28
2022-08-07T14:50:51.065Z,100615.75
2022-08-07T14:54:08.573Z,100620.00
2022-08-07T14:56:13.172Z,100620.81
2022-08-07T14:58:54.136Z,100616.38
2022-08-07T15:01:27.600Z,100611.13
2022-08-07T15:04:13.041Z,100619.72
2022-08-07T15:06:47.777Z,100610.25
2022-08-07T15:09:58.492Z,100604.31
2022-08-07T15:12:26.049Z,100597.97
2022-08-07T15:15:07.580Z,100600.50
2022-08-07T15:17:54.662Z,100598.81
2022-08-07T15:23:22.226Z,100609.31
2022-08-07T15:26:21.097Z,100606.09
2022-08-07T15:29:00.971Z,100607.13
2022-08-07T15:31:57.706Z,100596.56
2022-08-07T15:34:26.903Z,100606.53
2022-08-07T15:37:04.224Z,100604.59
2022-08-07T15:39:56.927Z,100606.44
2022-08-07T15:42:51.728Z,100607.72
2022-08-07T15:48:29.948Z,100605.81
2022-08-07T15:51:09.580Z,100611.41
2022-08-07T15:53:53.024Z,100603.16
2022-08-07T15:56:29.469Z,100606.63
2022-08-07T15:59:05.847Z,100606.91
2022-08-07T16:01:40.514Z,100606.63
2022-08-07T16:04:14.716Z,100608.19
2022-08-07T16:06:53.344Z,100609.00
2022-08-07T16:09:41.083Z,100606.88
2022-08-07T16:12:28.652Z,100604.44
2022-08-07T16:15:54.541Z,100611.78
2022-08-07T16:18:49.628Z,100614.25
2022-08-07T16:21:57.092Z,100611.53
2022-08-07T16:24:34.316Z,100621.81
2022-08-07T16:27:18.118Z,100619.69
2022-08-07T16:30:29.704Z,100622.47
2022-08-07T16:34:06.775Z,100623.69
2022-08-07T16:36:19.874Z,100620.59
2022-08-07T16:39:33.532Z,100632.66
2022-08-07T16:42:37.624Z,100632.81
2022-08-07T16:46:20.978Z,100635.78
2022-08-07T16:50:28.056Z,100638.47
2022-08-07T16:52:41.694Z,100634.56
2022-08-07T16:54:57.957Z,100638.03
2022-08-07T16:58:01.844Z,100633.84
2022-08-07T17:00:29.459Z,100634.28
2022-08-07T17:03:17.384Z,100642.97
2022-08-07T17:06:01.683Z,100646.06
2022-08-07T17:09:10.620Z,100648.19
2022-08-07T17:12:05.250Z,100646.50
2022-08-07T17:14:38.077Z,100652.31
2022-08-07T17:17:19.033Z,100651.81
2022-08-07T17:20:02.762Z,100645.97
2022-08-07T17:22:37.826Z,100657.59
2022-08-07T17:25:16.465Z,100652.41
2022-08-07T17:27:59.202Z,100655.25
2022-08-07T17:30:35.898Z,100658.31
2022-08-07T17:34:09.067Z,100655.88
2022-08-07T17:36:13.672Z,100659.72
2022-08-07T17:38:55.345Z,100670.31
2022-08-07T17:42:02.023Z,100667.06
2022-08-07T17:44:33.782Z,100674.28
2022-08-07T17:47:16.970Z,100670.97
2022-08-07T17:50:16.445Z,100677.66
2022-08-07T17:52:54.222Z,100680.00
2022-08-07T17:56:00.203Z,100676.72
2022-08-07T17:58:30.425Z,100681.97
2022-08-07T18:01:02.803Z,100687.22
2022-08-07T18:04:16.380Z,100690.69
2022-08-07T18:07:19.197Z,100692.28
2022-08-07T18:10:05.276Z,100696.06
2022-08-07T18:12:48.192Z,100696.63
2022-08-07T18:15:22.162Z,100697.88
2022-08-07T18:18:45.834Z,100701.94
2022-08-07T18:21:08.366Z,100707.88
2022-08-07T18:23:58.875Z,100709.28
2022-08-07T18:26:44.615Z,100709.06
2022-08-07T18:30:08.388Z,100716.44
2022-08-07T18:32:24.752Z,100711.97
2022-08-07T18:35:15.649Z,100710.19
2022-08-07T18:38:57.833Z,100713.19
2022-08-07T18:41:02.788Z,100722.00
2022-08-07T18:43:57.809Z,100720.06
2022-08-07T18:46:32.522Z,100731.38
2022-08-07T18:50:30.571Z,100724.44
2022-08-07T18:52:37.841Z,100731.22
2022-08-07T18:55:40.307Z,100735.56
2022-08-07T18:58:20.085Z,100733.22
2022-08-07T19:01:01.069Z,100732.28
2022-08-07T19:03:37.757Z,100735.56
2022-08-07T19:06:16.237Z,100730.03
2022-08-07T19:08:58.597Z,100730.41
2022-08-07T19:12:04.281Z,100727.81
2022-08-07T19:14:59.202Z,100726.81
2022-08-07T19:18:01.593Z,100725.53
2022-08-07T19:20:38.741Z,100731.28
2022-08-07T19:23:58.395Z,100730.13
2022-08-07T19:26:28.976Z,100738.00
2022-08-07T19:31:03.821Z,100736.84
2022-08-07T19:32:10.323Z,100744.09
2022-08-07T19:34:47.943Z,100747.28
2022-08-07T19:37:19.196Z,100743.28
2022-08-07T19:40:01.971Z,100751.38
2022-08-07T19:42:39.916Z,100750.84
2022-08-07T19:46:05.128Z,100746.53
2022-08-07T19:48:04.096Z,100748.06
2022-08-07T19:50:53.156Z,100748.75
2022-08-07T19:54:31.809Z,100749.91
2022-08-07T19:57:56.770Z,100762.22
2022-08-07T19:59:01.571Z,100763.25
2022-08-07T20:01:57.004Z,100762.09
2022-08-07T20:04:31.127Z,100766.94
2022-08-07T20:07:01.703Z,100768.47
2022-08-07T20:10:33.592Z,100772.47
2022-08-07T20:12:34.858Z,100770.09
2022-08-07T20:15:15.504Z,100770.56
2022-08-07T20:18:01.777Z,100771.56
2022-08-07T20:20:33.950Z,100764.94
2022-08-07T20:23:22.996Z,100775.41
2022-08-07T20:25:55.581Z,100775.47
2022-08-07T20:28:29.215Z,100759.63
2022-08-07T20:30:59.162Z,100754.97
2022-08-07T20:33:37.533Z,100769.00
2022-08-07T20:36:09.830Z,100777.94
2022-08-07T20:38:53.629Z,100778.09
2022-08-07T20:41:33.972Z,100779.78
2022-08-07T20:44:12.851Z,100769.63
2022-08-07T20:46:42.796Z,100768.38
2022-08-07T20:49:58.930Z,100783.31
2022-08-07T20:52:14.295Z,100781.22
2022-08-07T20:54:53.912Z,100783.22
2022-08-07T20:57:25.400Z,100782.78
2022-08-07T21:00:06.637Z,100789.47
2022-08-07T21:02:55.161Z,100791.63
2022-08-07T21:05:52.915Z,100788.81
2022-08-07T21:08:36.743Z,100792.94
2022-08-07T21:11:10.706Z,100797.81
2022-08-07T21:14:29.505Z,100793.28
2022-08-07T21:16:46.675Z,100802.38
2022-08-07T21:19:32.145Z,100802.53
2022-08-07T21:22:16.699Z,100808.78
2022-08-07T21:25:12.178Z,100803.69
2022-08-07T21:28:02.019Z,100808.69
2022-08-07T21:30:42.167Z,100807.41
2022-08-07T21:33:16.703Z,100808.81
2022-08-07T21:36:06.754Z,100807.16
2022-08-07T21:38:50.099Z,100806.84
2022-08-07T21:41:26.921Z,100806.59
2022-08-07T21:44:14.613Z,100813.25
2022-08-07T21:47:01.483Z,100801.47
2022-08-07T21:50:00.615Z,100807.88
2022-08-07T21:52:34.257Z,100804.91
2022-08-07T21:55:11.868Z,100797.41
2022-08-07T21:57:53.647Z,100807.31
2022-08-07T22:00:25.148Z,100807.47
2022-08-07T22:03:00.602Z,100803.34
2022-08-07T22:05:45.748Z,100799.69
2022-08-07T22:08:19.702Z,100802.63
2022-08-07T22:10:51.094Z,100815.09
2022-08-07T22:13:24.657Z,100821.63
2022-08-07T22:16:42.455Z,100815.66
2022-08-07T22:19:08.044Z,100809.84
2022-08-07T22:22:04.662Z,100818.78
2022-08-07T22:24:34.495Z,100814.38
2022-08-07T22:27:06.952Z,100812.94
2022-08-07T22:29:48.372Z,100804.84
2022-08-07T22:32:26.490Z,100807.97
2022-08-07T22:34:56.250Z,100801.47
2022-08-07T22:38:04.523Z,100804.28
2022-08-07T22:40:29.737Z,100813.47
2022-08-07T22:43:02.244Z,100806.81
2022-08-07T22:46:21.556Z,100804.28
2022-08-07T22:49:09.432Z,100798.03
2022-08-07T22:51:54.251Z,100797.47
2022-08-07T22:54:48.746Z,100801.13
2022-08-07T22:57:40.935Z,100806.81
2022-08-07T23:00:14.899Z,100809.75
2022-08-07T23:03:12.251Z,100812.44
2022-08-07T23:06:09.778Z,100814.28
2022-08-07T23:08:53.059Z,100815.28
2022-08-07T23:11:41.299Z,100816.53
2022-08-07T23:14:33.040Z,100811.16
2022-08-07T23:17:19.880Z,100809.16
2022-08-07T23:20:03.292Z,100813.81
2022-08-07T23:22:46.418Z,100813.63
2022-08-07T23:25:32.512Z,100803.75
2022-08-07T23:28:21.548Z,100798.56
2022-08-07T23:31:13.697Z,100800.00
2022-08-07T23:34:33.967Z,100814.66
2022-08-07T23:37:19.052Z,100814.06
2022-08-07T23:40:06.052Z,100816.03
2022-08-07T23:42:54.527Z,100812.91
2022-08-07T23:45:33.391Z,100821.94
2022-08-07T23:48:58.716Z,100826.59
2022-08-07T23:53:00.427Z,100823.72
2022-08-07T23:54:44.297Z,100818.31
2022-08-07T23:57:23.796Z,100816.00
